CYQQ - Comox Valley Airport / Cfb Comox

Pirep is a free, collaborative database of all public and private airports located within the United States. All pilots are welcome to contribute, edit, and improve any airport they have local knowledge about, no registration required.
Are you familiar with this airport? Help out other pilots by adding your local knowledge.
Uploaded photos will be licensed under a CC BY-SA 4.0 license. Please only upload photos you have the rights to use.
Tags
Public
Undocu­mented
METAR / TAF
Edit Tags
Food
Camping
Lodging
Car Rental
Bicycles
Swimming
Golfing
Fishing
Hot Springs
Museum
Flying Clubs
Airpark
Upcoming Events
No upcoming events. Is anything happening here soon?
*
*
*

Where exactly on/near the airport is this event taking place?

Is there a webpage with more information for this event?

Who should be contacted for more information?

What is this event all about?

Repeat every
Description
Transient Parking
Fuel Location
Landing & Tie-down Fees
Crew Car Availability
Flying Clubs
WiFi Access
Airport Statistics
Location: Comox, British Columbia
Elevation: 84ft
Runway 12/30: 10,000ft
Runway 18/36: 5,000ft
Warning: This airport was imported from a non-authoritative source. It's public/private status may not be accurate.
Access: Open to the public
Current Weather — VFR
  • Weather data is strictly informational and not for flight planning purposes.
  • METAR
    2024-04-22 05:00:00 PDT
    Ceiling Wind Temperature Dewpoint Weather Visbility
    Sky clear 280° @ 4kt 39°F 33°F N/A 20SM
    Clouds: Few @ 6,500ft
    Raw: CYQQ 221200Z 28004KT 20SM FEW065 04/01 A3030 RMK SC1 DENSITY ALT -1546FT SLP263
  • TAF
    2024-04-22 05:00:00 PDT – 2024-04-22 11:00:00 PDT
    Ceiling Wind Weather Visbility
    Sky clear 300° @ 5kt N/A 6SM
    Clouds: Scattered @ 2,500ft
    Raw: TAF CYQQ 221140Z 2212/2318 30005KT P6SM SCT025 TEMPO 2212/2217 BKN020 FM221800 VRB03KT P6SM FEW025 FM230400 VRB03KT P6SM BKN200 RMK NXT FCST BY 221800Z
  • TAF
    2024-04-22 05:00:00 PDT – 2024-04-22 10:00:00 PDT
    Ceiling Wind Weather Visbility
    2,000ft ° @ kt N/A SM
    Clouds: Broken @ 2,000ft
    Raw: TAF CYQQ 221140Z 2212/2318 30005KT P6SM SCT025 TEMPO 2212/2217 BKN020 FM221800 VRB03KT P6SM FEW025 FM230400 VRB03KT P6SM BKN200 RMK NXT FCST BY 221800Z
  • TAF
    2024-04-22 11:00:00 PDT – 2024-04-22 21:00:00 PDT
    Ceiling Wind Weather Visbility
    Sky clear Variable N/A 6SM
    Clouds: Few @ 2,500ft
    Raw: TAF CYQQ 221140Z 2212/2318 30005KT P6SM SCT025 TEMPO 2212/2217 BKN020 FM221800 VRB03KT P6SM FEW025 FM230400 VRB03KT P6SM BKN200 RMK NXT FCST BY 221800Z
  • TAF
    2024-04-22 21:00:00 PDT – 2024-04-23 11:00:00 PDT
    Ceiling Wind Weather Visbility
    20,000ft Variable N/A 6SM
    Clouds: Broken @ 20,000ft
    Raw: TAF CYQQ 221140Z 2212/2318 30005KT P6SM SCT025 TEMPO 2212/2217 BKN020 FM221800 VRB03KT P6SM FEW025 FM230400 VRB03KT P6SM BKN200 RMK NXT FCST BY 221800Z
Click/tap to add an annotation marker to the map
Airport Webcams
No webcams added yet.
Direct links to live image URLs will be displayed inline on this page. URLs to separate webpages will be linked to.
URL:
Direct links to live image URLs will be displayed inline on this page. URLs to separate webpages will be linked to.
URL:
Comments
Leave a comment What was your experience like at this airport?